Time;durP1;ratioP1;P1;durP2;ratioP2;P2;SDS_P1;SDS_P2;PMS_P1;PMS_P2;Temp;Humidity;BMP_temperature;BMP_pressure;BME280_temperature;BME280_humidity;BME280_pressure;Samples;Min_cycle;Max_cycle;Signal;HPM_P1;HPM_P2
2023/10/17 00:02:44;;;;;;;11.50;7.72;;;;;;;;;;12636539;23;20465;-71
2023/10/17 00:07:46;;;;;;;8.40;7.65;;;;;;;;;;12636884;23;20039;-70
2023/10/17 00:12:50;;;;;;;11.02;8.15;;;;;;;;;;12628109;23;20473;-70
2023/10/17 00:17:47;;;;;;;10.15;7.68;;;;;;;;;;12637012;23;20032;-68
2023/10/17 00:22:43;;;;;;;13.27;8.05;;;;;;;;;;12636726;23;20039;-70
2023/10/17 00:27:40;;;;;;;8.05;7.25;;;;;;;;;;12636891;23;20473;-70
2023/10/17 00:32:41;;;;;;;10.95;8.13;;;;;;;;;;12636617;23;20036;-69
2023/10/17 00:37:38;;;;;;;8.98;7.97;;;;;;;;;;12637532;23;20031;-70
2023/10/17 00:42:34;;;;;;;10.50;8.13;;;;;;;;;;12635958;23;20074;-70
2023/10/17 00:47:31;;;;;;;13.23;7.78;;;;;;;;;;12636842;23;20027;-69
2023/10/17 00:52:32;;;;;;;9.27;7.60;;;;;;;;;;12633711;23;20042;-70
2023/10/17 00:57:28;;;;;;;9.25;7.38;;;;;;;;;;12630600;23;20616;-70
2023/10/17 01:02:29;;;;;;;8.70;7.90;;;;;;;;;;12635590;23;20544;-69
2023/10/17 01:07:29;;;;;;;7.97;6.90;;;;;;;;;;12632331;23;20032;-70
2023/10/17 01:12:27;;;;;;;8.38;7.45;;;;;;;;;;12634563;23;20032;-69
2023/10/17 01:17:24;;;;;;;9.02;8.13;;;;;;;;;;12635653;23;20462;-68
2023/10/17 01:22:20;;;;;;;8.57;7.68;;;;;;;;;;12634316;23;20020;-70
2023/10/17 01:27:17;;;;;;;10.77;8.65;;;;;;;;;;12628870;23;20098;-68
2023/10/17 01:32:15;;;;;;;11.23;8.23;;;;;;;;;;12635163;23;20462;-68
2023/10/17 01:37:11;;;;;;;8.93;8.20;;;;;;;;;;12635224;23;20024;-68
2023/10/17 01:42:08;;;;;;;9.13;8.20;;;;;;;;;;12632392;23;20343;-69
2023/10/17 01:47:07;;;;;;;8.30;7.50;;;;;;;;;;12634806;23;20027;-68
2023/10/17 01:52:06;;;;;;;8.77;7.90;;;;;;;;;;12635269;23;20028;-69
2023/10/17 01:57:06;;;;;;;9.45;7.63;;;;;;;;;;12634974;23;20028;-65
2023/10/17 02:02:03;;;;;;;9.07;8.27;;;;;;;;;;12627980;23;20052;-66
2023/10/17 02:07:00;;;;;;;9.68;8.88;;;;;;;;;;12635208;23;20413;-68
2023/10/17 02:11:57;;;;;;;9.18;8.32;;;;;;;;;;12634221;23;20111;-68
2023/10/17 02:16:55;;;;;;;9.40;8.43;;;;;;;;;;12633841;23;20024;-67
2023/10/17 02:21:54;;;;;;;9.50;8.60;;;;;;;;;;12634017;23;20070;-70
2023/10/17 02:27:00;;;;;;;10.68;8.50;;;;;;;;;;12635941;23;20409;-68
2023/10/17 02:31:58;;;;;;;9.80;8.90;;;;;;;;;;12634777;23;20032;-69
2023/10/17 02:36:55;;;;;;;10.90;8.20;;;;;;;;;;12638646;23;20031;-70
2023/10/17 02:42:06;;;;;;;8.75;7.85;;;;;;;;;;12639044;23;20020;-69
2023/10/17 02:47:05;;;;;;;14.15;8.95;;;;;;;;;;12638614;23;20067;-68
2023/10/17 02:52:02;;;;;;;10.05;9.05;;;;;;;;;;12638815;23;20071;-67
2023/10/17 02:56:58;;;;;;;9.75;8.25;;;;;;;;;;12633792;23;20033;-68
2023/10/17 03:01:55;;;;;;;10.63;8.23;;;;;;;;;;12637705;23;20020;-70
2023/10/17 03:06:54;;;;;;;10.75;8.07;;;;;;;;;;12632988;23;20024;-70
2023/10/17 03:11:57;;;;;;;9.25;8.35;;;;;;;;;;12637992;23;20031;-68
2023/10/17 03:16:53;;;;;;;10.50;8.52;;;;;;;;;;12637057;23;20120;-69
2023/10/17 03:21:52;;;;;;;9.73;8.73;;;;;;;;;;12637620;23;20784;-68
2023/10/17 03:26:55;;;;;;;10.02;8.52;;;;;;;;;;12635286;23;20024;-68
2023/10/17 03:32:03;;;;;;;9.80;8.90;;;;;;;;;;12636716;23;20034;-69
2023/10/17 03:37:26;;;;;;;11.00;9.77;;;;;;;;;;12636944;23;20024;-70
2023/10/17 03:42:29;;;;;;;10.25;9.25;;;;;;;;;;12641017;23;20028;-71
2023/10/17 03:47:27;;;;;;;10.70;9.60;;;;;;;;;;12634138;23;20466;-70
2023/10/17 03:52:23;;;;;;;10.43;9.43;;;;;;;;;;12635265;23;20024;-71
2023/10/17 03:57:25;;;;;;;10.90;9.55;;;;;;;;;;12636391;23;20418;-70
2023/10/17 04:02:24;;;;;;;12.60;9.45;;;;;;;;;;12628256;23;20409;-70
2023/10/17 04:07:26;;;;;;;12.07;10.35;;;;;;;;;;12624916;23;20016;-70
2023/10/17 04:12:38;;;;;;;10.40;9.50;;;;;;;;;;12634298;23;20033;-70
2023/10/17 04:17:38;;;;;;;11.73;9.90;;;;;;;;;;12635367;23;20090;-70
2023/10/17 04:22:35;;;;;;;10.38;9.55;;;;;;;;;;12634815;23;20474;-71
2023/10/17 04:27:32;;;;;;;12.57;9.70;;;;;;;;;;12634267;23;20021;-70
2023/10/17 04:32:28;;;;;;;11.20;10.20;;;;;;;;;;12635417;23;20044;-71
2023/10/17 04:37:32;;;;;;;10.70;9.80;;;;;;;;;;12634383;23;20096;-70
2023/10/17 04:42:47;;;;;;;10.65;9.27;;;;;;;;;;12630424;23;20583;-70
2023/10/17 04:47:45;;;;;;;11.45;10.43;;;;;;;;;;12632315;23;20031;-70
2023/10/17 04:52:44;;;;;;;11.10;9.98;;;;;;;;;;12630357;23;20107;-70
2023/10/17 04:57:56;;;;;;;11.60;10.40;;;;;;;;;;12636187;23;20362;-71
2023/10/17 05:03:08;;;;;;;11.00;9.73;;;;;;;;;;12636586;23;20029;-71
2023/10/17 05:08:17;;;;;;;12.80;11.70;;;;;;;;;;12635276;23;20025;-71
2023/10/17 06:16:54;;;;;;;12.82;11.70;;;;;;;;;;12628937;23;20344;-72
2023/10/17 06:26:59;;;;;;;12.32;11.02;;;;;;;;;;12635369;23;20086;-73
2023/10/17 06:37:09;;;;;;;12.05;10.80;;;;;;;;;;12635151;23;20489;-72
2023/10/17 06:42:14;;;;;;;12.20;11.18;;;;;;;;;;12634547;23;20075;-69
2023/10/17 06:47:17;;;;;;;13.88;10.77;;;;;;;;;;12633890;23;20031;-71
2023/10/17 06:57:19;;;;;;;12.80;11.60;;;;;;;;;;12627549;23;20025;-72
2023/10/17 07:02:18;;;;;;;21.45;12.23;;;;;;;;;;12634563;23;20458;-72
2023/10/17 07:07:16;;;;;;;12.27;10.98;;;;;;;;;;12632745;23;20024;-72
2023/10/17 07:12:16;;;;;;;12.98;11.13;;;;;;;;;;12634380;23;20078;-71
2023/10/17 07:17:38;;;;;;;11.80;10.35;;;;;;;;;;12632945;23;20024;-72
2023/10/17 07:22:35;;;;;;;13.60;11.37;;;;;;;;;;12630423;23;20374;-72
2023/10/17 07:27:35;;;;;;;13.32;11.65;;;;;;;;;;12637929;23;20585;-72
2023/10/17 07:32:44;;;;;;;15.15;10.88;;;;;;;;;;12636781;23;20055;-72
2023/10/17 07:37:53;;;;;;;14.10;11.32;;;;;;;;;;12637302;23;20406;-72
2023/10/17 07:42:52;;;;;;;16.65;11.38;;;;;;;;;;12635197;23;20020;-72
2023/10/17 07:47:51;;;;;;;12.07;10.93;;;;;;;;;;12637518;23;20032;-72
2023/10/17 07:52:51;;;;;;;14.55;11.95;;;;;;;;;;12637513;23;20032;-72
2023/10/17 07:57:53;;;;;;;14.02;10.13;;;;;;;;;;12637132;23;20024;-72
2023/10/17 08:02:51;;;;;;;13.98;8.93;;;;;;;;;;12637797;23;20102;-72
2023/10/17 08:07:49;;;;;;;10.05;8.95;;;;;;;;;;12637446;23;20601;-73
2023/10/17 08:12:45;;;;;;;11.82;8.57;;;;;;;;;;12635936;23;20108;-73
2023/10/17 08:17:43;;;;;;;10.32;8.88;;;;;;;;;;12637105;23;20056;-72
2023/10/17 08:27:55;;;;;;;8.55;6.22;;;;;;;;;;12635369;23;20021;-72
2023/10/17 08:37:55;;;;;;;8.80;5.72;;;;;;;;;;12637272;23;20423;-71
2023/10/17 08:42:52;;;;;;;7.78;5.32;;;;;;;;;;12636532;23;20079;-72
2023/10/17 08:47:50;;;;;;;7.38;5.90;;;;;;;;;;12634318;23;20044;-71
2023/10/17 08:52:48;;;;;;;13.43;6.05;;;;;;;;;;12628368;23;20024;-72
2023/10/17 08:57:46;;;;;;;9.25;5.65;;;;;;;;;;12635145;23;20091;-72
2023/10/17 09:02:55;;;;;;;14.57;5.88;;;;;;;;;;12636364;23;20520;-72
2023/10/17 09:07:55;;;;;;;8.27;5.00;;;;;;;;;;12634495;23;20104;-72
2023/10/17 09:18:14;;;;;;;5.28;4.78;;;;;;;;;;12635782;23;20036;-72
2023/10/17 09:23:21;;;;;;;5.68;4.70;;;;;;;;;;12633415;23;20020;-72
2023/10/17 09:28:19;;;;;;;8.25;5.03;;;;;;;;;;12636525;23;20037;-72
2023/10/17 09:33:35;;;;;;;6.18;4.88;;;;;;;;;;12632481;23;20024;-72
2023/10/17 09:38:32;;;;;;;6.63;4.40;;;;;;;;;;12634577;23;20099;-72
2023/10/17 09:43:29;;;;;;;6.88;4.82;;;;;;;;;;12634156;23;20024;-72
2023/10/17 09:48:28;;;;;;;7.80;4.90;;;;;;;;;;12635032;23;20024;-72
2023/10/17 09:53:29;;;;;;;6.68;5.15;;;;;;;;;;12634627;23;20033;-73
2023/10/17 09:58:28;;;;;;;9.90;4.60;;;;;;;;;;12627103;23;20072;-72
2023/10/17 10:03:28;;;;;;;5.85;4.63;;;;;;;;;;12633822;23;20025;-72
2023/10/17 10:08:32;;;;;;;6.90;4.80;;;;;;;;;;12633100;23;20020;-72
2023/10/17 10:13:28;;;;;;;7.03;4.75;;;;;;;;;;12634003;23;20418;-72
2023/10/17 10:18:42;;;;;;;8.43;4.50;;;;;;;;;;12633970;23;20482;-72
2023/10/17 10:23:40;;;;;;;5.05;4.35;;;;;;;;;;12633124;23;20032;-72
2023/10/17 10:28:44;;;;;;;9.98;4.90;;;;;;;;;;12634360;23;20020;-72
2023/10/17 10:33:41;;;;;;;5.15;4.20;;;;;;;;;;12632780;23;20033;-72
2023/10/17 10:38:38;;;;;;;6.40;4.38;;;;;;;;;;12628324;23;20063;-72
2023/10/17 10:43:34;;;;;;;4.25;3.85;;;;;;;;;;12631842;23;20056;-72
2023/10/17 10:48:32;;;;;;;5.88;4.95;;;;;;;;;;12633668;23;20025;-73
2023/10/17 10:53:29;;;;;;;5.03;4.13;;;;;;;;;;12633653;23;20028;-72
2023/10/17 10:58:27;;;;;;;6.40;3.70;;;;;;;;;;12638190;23;20024;-72
2023/10/17 11:03:24;;;;;;;7.57;4.22;;;;;;;;;;12631077;23;20028;-73
2023/10/17 11:08:32;;;;;;;6.15;4.00;;;;;;;;;;12637917;23;20020;-72
2023/10/17 11:13:32;;;;;;;8.82;3.65;;;;;;;;;;12637291;23;20083;-72
2023/10/17 11:18:31;;;;;;;5.40;3.60;;;;;;;;;;12638033;23;20100;-72
2023/10/17 11:23:29;;;;;;;5.90;4.20;;;;;;;;;;12637950;23;20115;-72
2023/10/17 11:28:27;;;;;;;5.18;3.38;;;;;;;;;;12637172;23;20021;-72
2023/10/17 11:33:35;;;;;;;7.10;3.40;;;;;;;;;;12636581;23;20028;-72
2023/10/17 11:38:40;;;;;;;3.90;3.50;;;;;;;;;;12630592;23;20024;-73
2023/10/17 11:43:54;;;;;;;3.88;3.30;;;;;;;;;;12636873;23;20617;-72
2023/10/17 11:48:54;;;;;;;8.60;3.45;;;;;;;;;;12637309;23;20199;-72
2023/10/17 11:54:05;;;;;;;4.88;3.70;;;;;;;;;;12635029;23;20111;-69
2023/10/17 11:59:20;;;;;;;6.03;3.85;;;;;;;;;;12636839;23;20128;-71
2023/10/17 12:04:17;;;;;;;5.45;3.78;;;;;;;;;;12636566;23;20406;-71
2023/10/17 12:09:23;;;;;;;4.18;3.20;;;;;;;;;;12634609;23;20020;-72
2023/10/17 12:14:20;;;;;;;5.25;3.45;;;;;;;;;;12636874;23;20725;-71
2023/10/17 12:19:17;;;;;;;6.25;3.90;;;;;;;;;;12630573;23;20024;-72
2023/10/17 12:24:16;;;;;;;4.53;3.90;;;;;;;;;;12635504;23;20505;-71
2023/10/17 12:29:12;;;;;;;6.13;4.00;;;;;;;;;;12636524;23;20036;-72
2023/10/17 12:34:09;;;;;;;4.78;3.70;;;;;;;;;;12635575;23;20029;-71
2023/10/17 12:39:08;;;;;;;6.63;3.88;;;;;;;;;;12635787;23;20025;-72
2023/10/17 12:44:05;;;;;;;7.57;3.78;;;;;;;;;;12633836;23;20028;-72
2023/10/17 12:49:01;;;;;;;3.90;3.60;;;;;;;;;;12636295;23;20071;-72
2023/10/17 12:53:58;;;;;;;4.38;3.67;;;;;;;;;;12629790;23;20028;-72
2023/10/17 12:58:54;;;;;;;4.88;3.42;;;;;;;;;;12635201;23;20413;-73
2023/10/17 13:03:53;;;;;;;3.92;3.20;;;;;;;;;;12632100;23;20071;-74
2023/10/17 13:08:56;;;;;;;5.50;3.95;;;;;;;;;;12631863;23;20031;-72
2023/10/17 13:13:53;;;;;;;5.22;3.90;;;;;;;;;;12636378;23;20020;-73
2023/10/17 13:18:50;;;;;;;3.80;3.50;;;;;;;;;;12635058;23;20352;-72
2023/10/17 13:23:48;;;;;;;4.85;3.53;;;;;;;;;;12635535;23;20020;-73
2023/10/17 13:28:44;;;;;;;4.00;3.60;;;;;;;;;;12635117;23;20024;-73
2023/10/17 13:33:45;;;;;;;4.03;3.60;;;;;;;;;;12634860;23;20032;-73
2023/10/17 13:38:42;;;;;;;7.85;3.53;;;;;;;;;;12629734;23;20087;-73
2023/10/17 13:43:38;;;;;;;3.42;3.13;;;;;;;;;;12633501;23;20020;-73
2023/10/17 13:48:36;;;;;;;4.55;4.10;;;;;;;;;;12629378;23;20021;-74
2023/10/17 13:53:33;;;;;;;6.53;3.95;;;;;;;;;;12632350;23;20461;-73
2023/10/17 13:58:30;;;;;;;4.00;3.60;;;;;;;;;;12634792;23;20028;-72
2023/10/17 14:03:26;;;;;;;4.72;3.92;;;;;;;;;;12633472;23;20020;-70
2023/10/17 14:08:25;;;;;;;4.60;3.20;;;;;;;;;;12628502;23;20059;-73
2023/10/17 14:13:21;;;;;;;5.55;4.00;;;;;;;;;;12634222;23;20108;-72
2023/10/17 14:18:18;;;;;;;6.13;3.63;;;;;;;;;;12635384;23;20494;-72
2023/10/17 14:23:26;;;;;;;3.83;3.42;;;;;;;;;;12634722;23;20050;-72
2023/10/17 14:28:22;;;;;;;4.18;3.78;;;;;;;;;;12635993;23;20055;-72
2023/10/17 14:33:19;;;;;;;3.90;3.50;;;;;;;;;;12639731;23;20086;-73
2023/10/17 14:38:16;;;;;;;4.82;3.50;;;;;;;;;;12641556;23;20026;-74
2023/10/17 14:43:14;;;;;;;6.63;3.42;;;;;;;;;;12640595;23;20025;-72
2023/10/17 14:48:13;;;;;;;3.58;3.22;;;;;;;;;;12640832;23;20017;-72
2023/10/17 14:53:11;;;;;;;3.72;3.17;;;;;;;;;;12640933;23;20021;-73
2023/10/17 14:58:07;;;;;;;4.43;3.33;;;;;;;;;;12641638;23;20626;-72
2023/10/17 15:03:04;;;;;;;4.05;3.65;;;;;;;;;;12641160;23;20028;-71
2023/10/17 15:08:00;;;;;;;3.30;3.00;;;;;;;;;;12635753;23;20031;-72
2023/10/17 15:12:58;;;;;;;5.55;3.60;;;;;;;;;;12638527;23;20134;-72
2023/10/17 15:17:54;;;;;;;6.80;3.60;;;;;;;;;;12631622;23;20134;-70
2023/10/17 15:22:51;;;;;;;6.03;3.60;;;;;;;;;;12639451;23;20494;-71
2023/10/17 15:27:48;;;;;;;4.13;3.67;;;;;;;;;;12641138;23;20024;-72
2023/10/17 15:32:44;;;;;;;4.22;3.83;;;;;;;;;;12639143;23;20120;-72
2023/10/17 15:37:47;;;;;;;4.05;3.75;;;;;;;;;;12641351;23;20371;-72
2023/10/17 15:42:44;;;;;;;4.20;3.90;;;;;;;;;;12638350;23;20020;-72
2023/10/17 15:47:42;;;;;;;4.43;4.03;;;;;;;;;;12638704;23;20025;-73
2023/10/17 15:52:40;;;;;;;4.70;4.30;;;;;;;;;;12635659;23;20028;-74
2023/10/17 15:57:37;;;;;;;5.32;4.22;;;;;;;;;;12638035;23;20035;-74
2023/10/17 16:02:33;;;;;;;4.70;4.30;;;;;;;;;;12634841;23;20024;-73
2023/10/17 16:07:29;;;;;;;5.22;4.10;;;;;;;;;;12636477;23;20413;-73
2023/10/17 16:12:26;;;;;;;5.38;4.85;;;;;;;;;;12627906;23;20028;-72
2023/10/17 16:17:24;;;;;;;6.70;5.20;;;;;;;;;;12630935;23;20029;-73
2023/10/17 16:22:21;;;;;;;6.35;5.75;;;;;;;;;;12629774;23;20029;-74
2023/10/17 16:27:17;;;;;;;13.65;6.55;;;;;;;;;;12635882;23;20462;-73
2023/10/17 16:32:13;;;;;;;8.55;6.95;;;;;;;;;;12634997;23;20029;-72
2023/10/17 16:37:09;;;;;;;7.22;6.18;;;;;;;;;;12634779;23;20039;-73
2023/10/17 16:42:06;;;;;;;6.90;6.03;;;;;;;;;;12630488;23;20288;-74
2023/10/17 16:47:02;;;;;;;6.63;6.03;;;;;;;;;;12632790;23;20466;-74
2023/10/17 16:52:01;;;;;;;6.60;5.85;;;;;;;;;;12633250;23;20052;-73
2023/10/17 16:56:58;;;;;;;6.57;5.97;;;;;;;;;;12633704;23;20052;-74
2023/10/17 17:01:54;;;;;;;7.75;6.30;;;;;;;;;;12634107;23;20029;-74
2023/10/17 17:06:50;;;;;;;8.80;6.28;;;;;;;;;;12633073;23;20029;-74
2023/10/17 17:11:47;;;;;;;7.22;6.53;;;;;;;;;;12627201;23;20021;-74
2023/10/17 17:16:44;;;;;;;7.30;6.60;;;;;;;;;;12629360;23;20025;-73
2023/10/17 17:21:43;;;;;;;10.32;7.15;;;;;;;;;;12630034;23;20024;-74
2023/10/17 17:26:39;;;;;;;9.88;7.30;;;;;;;;;;12622197;23;20033;-73
2023/10/17 17:31:36;;;;;;;7.93;7.15;;;;;;;;;;12630290;23;20027;-74
2023/10/17 17:36:32;;;;;;;12.60;7.50;;;;;;;;;;12625235;23;20104;-73
2023/10/17 17:41:29;;;;;;;10.55;7.13;;;;;;;;;;12631783;23;20028;-73
2023/10/17 17:46:26;;;;;;;12.25;7.70;;;;;;;;;;12634151;23;20031;-74
2023/10/17 17:51:23;;;;;;;8.40;7.20;;;;;;;;;;12633199;23;20332;-73
2023/10/17 17:56:19;;;;;;;7.60;6.72;;;;;;;;;;12625999;23;20060;-73
2023/10/17 18:01:16;;;;;;;7.43;6.72;;;;;;;;;;12628437;23;20021;-74
2023/10/17 18:06:13;;;;;;;7.70;6.75;;;;;;;;;;12630769;23;20032;-73
2023/10/17 18:11:09;;;;;;;12.18;6.22;;;;;;;;;;12633676;23;20035;-73
2023/10/17 18:16:06;;;;;;;7.15;6.45;;;;;;;;;;12623299;23;20020;-74
2023/10/17 18:21:03;;;;;;;9.48;6.32;;;;;;;;;;12632376;23;20032;-74
2023/10/17 18:26:00;;;;;;;13.30;6.75;;;;;;;;;;12629131;23;20760;-73
2023/10/17 18:31:07;;;;;;;6.63;5.70;;;;;;;;;;12633843;23;20406;-73
2023/10/17 18:36:03;;;;;;;7.20;6.53;;;;;;;;;;12631285;23;20023;-73
2023/10/17 18:41:00;;;;;;;9.68;6.68;;;;;;;;;;12631905;23;20028;-73
2023/10/17 18:45:57;;;;;;;8.63;6.95;;;;;;;;;;12633433;23;20024;-73
2023/10/17 18:51:01;;;;;;;9.90;8.25;;;;;;;;;;12634166;23;20090;-73
2023/10/17 18:56:06;;;;;;;13.05;8.63;;;;;;;;;;12632254;23;20097;-73
2023/10/17 19:01:06;;;;;;;10.93;8.40;;;;;;;;;;12633477;23;20016;-73
2023/10/17 19:06:10;;;;;;;11.73;8.00;;;;;;;;;;12633023;23;20691;-74
2023/10/17 19:11:09;;;;;;;13.27;8.98;;;;;;;;;;12632866;23;20024;-74
2023/10/17 19:16:08;;;;;;;12.32;8.93;;;;;;;;;;12634438;23;20016;-74
2023/10/17 19:21:07;;;;;;;10.82;8.90;;;;;;;;;;12636135;23;20405;-73
2023/10/17 19:26:08;;;;;;;10.35;8.88;;;;;;;;;;12638249;23;20024;-73
2023/10/17 19:31:04;;;;;;;12.35;8.98;;;;;;;;;;12632112;23;20027;-73
2023/10/17 19:36:01;;;;;;;17.42;9.07;;;;;;;;;;12638493;23;20104;-73
2023/10/17 19:40:58;;;;;;;11.00;9.20;;;;;;;;;;12637873;23;20020;-72
2023/10/17 19:45:56;;;;;;;12.23;8.95;;;;;;;;;;12637514;23;20028;-73
2023/10/17 19:50:52;;;;;;;13.73;8.50;;;;;;;;;;12634571;23;20028;-73
2023/10/17 19:55:49;;;;;;;12.98;9.80;;;;;;;;;;12637269;23;20079;-73
2023/10/17 20:00:45;;;;;;;12.73;9.52;;;;;;;;;;12636890;23;20062;-74
2023/10/17 20:05:42;;;;;;;14.13;9.65;;;;;;;;;;12637335;23;20052;-73
2023/10/17 20:10:39;;;;;;;13.52;9.65;;;;;;;;;;12634192;23;20382;-69
2023/10/17 20:15:36;;;;;;;13.73;9.80;;;;;;;;;;12625976;23;20331;-68
2023/10/17 20:20:35;;;;;;;16.67;10.60;;;;;;;;;;12632491;23;20438;-68
2023/10/17 20:25:31;;;;;;;14.32;10.25;;;;;;;;;;12633466;23;20036;-68
2023/10/17 20:30:29;;;;;;;13.52;9.48;;;;;;;;;;12634700;23;20111;-67
2023/10/17 20:35:32;;;;;;;13.85;10.15;;;;;;;;;;12635342;23;20096;-67
2023/10/17 20:40:28;;;;;;;12.77;9.55;;;;;;;;;;12635010;23;20100;-68
2023/10/17 20:45:27;;;;;;;12.50;9.65;;;;;;;;;;12634446;23;20032;-68
2023/10/17 20:50:26;;;;;;;14.27;9.80;;;;;;;;;;12635394;23;20059;-67
2023/10/17 20:55:22;;;;;;;18.48;10.30;;;;;;;;;;12634628;23;20094;-67
2023/10/17 21:00:19;;;;;;;15.95;9.98;;;;;;;;;;12636511;23;20052;-67
2023/10/17 21:05:15;;;;;;;14.07;10.80;;;;;;;;;;12635931;23;20020;-68
2023/10/17 21:10:13;;;;;;;13.70;10.32;;;;;;;;;;12636337;23;20021;-69
2023/10/17 21:15:11;;;;;;;14.32;10.55;;;;;;;;;;12636087;23;20020;-68
2023/10/17 21:20:09;;;;;;;13.57;11.15;;;;;;;;;;12629444;23;20028;-68
2023/10/17 21:25:07;;;;;;;17.38;10.73;;;;;;;;;;12635590;23;20446;-68
2023/10/17 21:30:04;;;;;;;17.00;11.40;;;;;;;;;;12635011;23;20020;-68
2023/10/17 21:35:00;;;;;;;17.63;10.98;;;;;;;;;;12636918;23;20075;-67
2023/10/17 21:39:57;;;;;;;21.45;12.00;;;;;;;;;;12634715;23;20082;-68
2023/10/17 21:44:53;;;;;;;14.10;10.68;;;;;;;;;;12635473;23;20463;-67
2023/10/17 21:49:49;;;;;;;14.95;10.52;;;;;;;;;;12635776;23;20340;-66
2023/10/17 21:54:47;;;;;;;13.50;10.50;;;;;;;;;;12635631;23;20021;-66
2023/10/17 21:59:43;;;;;;;14.25;11.57;;;;;;;;;;12634148;23;20029;-67
2023/10/17 22:04:39;;;;;;;14.93;10.68;;;;;;;;;;12635353;23;20454;-66
2023/10/17 22:09:36;;;;;;;15.15;10.85;;;;;;;;;;12634213;23;20106;-66
2023/10/17 22:14:33;;;;;;;15.88;11.45;;;;;;;;;;12634648;23;20024;-66
2023/10/17 22:19:32;;;;;;;15.05;11.05;;;;;;;;;;12634812;23;20100;-66
2023/10/17 22:24:29;;;;;;;19.52;11.50;;;;;;;;;;12635110;23;20020;-67
2023/10/17 22:29:46;;;;;;;12.18;10.73;;;;;;;;;;12635680;23;20104;-67
2023/10/17 22:34:42;;;;;;;15.27;11.07;;;;;;;;;;12635727;23;20060;-66
2023/10/17 22:39:38;;;;;;;15.13;10.73;;;;;;;;;;12634699;23;20025;-66
2023/10/17 22:44:35;;;;;;;15.13;11.90;;;;;;;;;;12634312;23;20027;-66
2023/10/17 22:49:31;;;;;;;15.98;11.75;;;;;;;;;;12634675;23;20071;-66
2023/10/17 22:54:28;;;;;;;16.70;11.45;;;;;;;;;;12632370;23;20028;-66
2023/10/17 22:59:24;;;;;;;14.43;11.77;;;;;;;;;;12639350;23;20466;-66
2023/10/17 23:04:22;;;;;;;14.38;10.10;;;;;;;;;;12662072;22;20068;-67
2023/10/17 23:09:18;;;;;;;15.55;10.05;;;;;;;;;;12638254;23;20048;-66
2023/10/17 23:14:14;;;;;;;12.52;10.50;;;;;;;;;;12638044;23;20028;-65
2023/10/17 23:19:12;;;;;;;13.05;10.27;;;;;;;;;;12637701;23;20414;-65
2023/10/17 23:24:09;;;;;;;11.68;9.90;;;;;;;;;;12637461;23;20047;-65
2023/10/17 23:29:06;;;;;;;15.63;11.07;;;;;;;;;;12637565;23;20036;-67
2023/10/17 23:34:03;;;;;;;16.35;11.10;;;;;;;;;;12638656;23;20035;-67
2023/10/17 23:38:59;;;;;;;13.73;11.05;;;;;;;;;;12637417;23;20036;-67
2023/10/17 23:43:55;;;;;;;13.52;10.00;;;;;;;;;;12636870;23;20020;-68
2023/10/17 23:48:52;;;;;;;13.68;9.50;;;;;;;;;;12636426;23;20317;-69
2023/10/17 23:53:48;;;;;;;16.60;11.05;;;;;;;;;;12635394;23;20116;-66
2023/10/17 23:58:44;;;;;;;13.93;11.35;;;;;;;;;;12636880;23;20079;-66
